createdAt,value
2018-04-01T00:00:31.081Z,3.26
2018-04-01T00:01:31.067Z,3.20
2018-04-01T00:02:31.049Z,3.20
2018-04-01T00:03:52.047Z,3.15
2018-04-01T00:04:31.024Z,3.20
2018-04-01T00:05:31.009Z,3.23
2018-04-01T00:06:30.992Z,3.26
2018-04-01T00:07:30.978Z,3.18
2018-04-01T00:08:30.968Z,3.18
2018-04-01T00:09:51.953Z,3.20
2018-04-01T00:10:30.943Z,3.26
2018-04-01T00:11:30.917Z,3.24
2018-04-01T00:12:30.908Z,3.20
2018-04-01T00:13:30.894Z,3.20
2018-04-01T00:14:30.871Z,3.14
2018-04-01T00:15:51.870Z,3.11
2018-04-01T00:16:30.858Z,3.10
2018-04-01T00:17:30.826Z,3.11
2018-04-01T00:18:30.809Z,3.03
2018-04-01T00:19:30.797Z,3.15
2018-04-01T00:20:30.783Z,3.02
2018-04-01T00:21:51.776Z,3.08
2018-04-01T00:22:30.752Z,3.13
2018-04-01T00:23:30.744Z,3.10
2018-04-01T00:24:30.722Z,3.06
2018-04-01T00:25:30.712Z,3.13
2018-04-01T00:26:30.688Z,3.05
2018-04-01T00:27:51.676Z,3.08
2018-04-01T00:28:30.658Z,3.15
2018-04-01T00:29:30.653Z,3.15
2018-04-01T00:30:30.656Z,3.23
2018-04-01T00:31:30.614Z,3.21
2018-04-01T00:32:30.600Z,3.26
2018-04-01T00:33:51.586Z,3.17
2018-04-01T00:34:30.567Z,3.18
2018-04-01T00:35:30.559Z,3.15
2018-04-01T00:36:30.540Z,3.23
2018-04-01T00:37:30.527Z,3.18
2018-04-01T00:38:30.514Z,3.10
2018-04-01T00:39:51.496Z,3.11
2018-04-01T00:40:30.482Z,3.08
2018-04-01T00:41:30.466Z,3.06
2018-04-01T00:42:30.450Z,3.10
2018-04-01T00:43:30.436Z,3.14
2018-04-01T00:44:30.420Z,3.17
2018-04-01T00:45:51.403Z,3.20
2018-04-01T00:46:30.388Z,3.21
2018-04-01T00:47:30.380Z,3.14
2018-04-01T00:48:30.355Z,3.23
2018-04-01T00:49:30.337Z,3.23
2018-04-01T00:50:30.330Z,3.28
2018-04-01T00:51:51.316Z,3.26
2018-04-01T00:52:30.291Z,3.20
2018-04-01T00:53:30.279Z,3.26
2018-04-01T00:54:30.270Z,3.21
2018-04-01T00:55:30.252Z,3.17
2018-04-01T00:56:30.236Z,3.18
2018-04-01T00:57:51.226Z,3.06
2018-04-01T00:58:30.207Z,3.06
2018-04-01T00:59:30.190Z,3.06
2018-04-01T01:00:30.182Z,3.08
2018-04-01T01:01:30.160Z,3.11
2018-04-01T01:02:30.151Z,3.13
2018-04-01T01:03:51.133Z,3.17
2018-04-01T01:04:30.117Z,3.10
2018-04-01T01:05:30.103Z,3.08
2018-04-01T01:06:30.083Z,3.11
2018-04-01T01:07:30.073Z,3.17
2018-04-01T01:08:30.050Z,3.11
2018-04-01T01:09:51.041Z,3.10
2018-04-01T01:10:30.026Z,3.08
2018-04-01T01:11:30.012Z,2.99
2018-04-01T01:12:30.000Z,2.97
2018-04-01T01:13:29.985Z,2.93
2018-04-01T01:14:29.968Z,2.93
2018-04-01T01:15:50.956Z,2.78
2018-04-01T01:16:29.936Z,2.82
2018-04-01T01:17:29.925Z,2.84
2018-04-01T01:18:29.907Z,2.82
2018-04-01T01:19:29.891Z,2.79
2018-04-01T01:20:29.869Z,2.92
2018-04-01T01:21:50.860Z,2.84
2018-04-01T01:22:29.847Z,2.89
2018-04-01T01:23:29.832Z,2.81
2018-04-01T01:24:29.817Z,2.85
2018-04-01T01:25:29.796Z,2.90
2018-04-01T01:26:29.790Z,2.95
2018-04-01T01:27:50.774Z,3.05
2018-04-01T01:28:29.752Z,3.02
2018-04-01T01:29:29.779Z,3.06
2018-04-01T01:30:29.722Z,3.05
2018-04-01T01:31:29.706Z,3.06
2018-04-01T01:32:29.692Z,3.10
2018-04-01T01:33:50.679Z,3.06
2018-04-01T01:34:29.657Z,3.03
2018-04-01T01:35:29.647Z,3.08
2018-04-01T01:36:29.623Z,3.08
2018-04-01T01:37:29.618Z,3.10
2018-04-01T01:38:29.601Z,3.13
2018-04-01T01:39:50.587Z,3.06
2018-04-01T01:40:29.577Z,3.03
2018-04-01T01:41:29.551Z,3.08
2018-04-01T01:42:29.544Z,3.03
2018-04-01T01:43:29.524Z,3.08
2018-04-01T01:44:29.508Z,3.03
2018-04-01T01:45:50.500Z,3.17
2018-04-01T01:46:29.488Z,3.13
2018-04-01T01:47:29.465Z,3.26
2018-04-01T01:48:29.448Z,3.06
2018-04-01T01:49:29.442Z,3.11
2018-04-01T01:50:29.417Z,3.18
2018-04-01T01:51:50.407Z,3.14
2018-04-01T01:52:29.385Z,3.05
2018-04-01T01:53:29.380Z,3.06
2018-04-01T01:54:29.356Z,3.06
2018-04-01T01:55:29.340Z,3.05
2018-04-01T01:56:29.328Z,3.11
2018-04-01T01:57:50.315Z,3.02
2018-04-01T01:58:29.294Z,3.08
2018-04-01T01:59:29.283Z,3.02
2018-04-01T02:00:29.267Z,3.03
2018-04-01T02:01:29.248Z,2.97
2018-04-01T02:02:29.236Z,2.99
2018-04-01T02:03:50.220Z,2.99
2018-04-01T02:04:29.203Z,3.02
2018-04-01T02:05:29.190Z,2.97
2018-04-01T02:06:29.186Z,2.99
2018-04-01T02:07:29.164Z,3.06
2018-04-01T02:08:29.144Z,3.08
2018-04-01T02:09:50.136Z,2.95
2018-04-01T02:10:29.123Z,3.06
2018-04-01T02:11:29.097Z,3.05
2018-04-01T02:12:29.086Z,3.02
2018-04-01T02:13:29.066Z,3.03
2018-04-01T02:14:29.053Z,2.97
2018-04-01T02:15:50.040Z,3.02
2018-04-01T02:16:29.023Z,3.02
2018-04-01T02:17:29.008Z,3.02
2018-04-01T02:18:28.988Z,3.02
2018-04-01T02:19:28.976Z,2.99
2018-04-01T02:20:28.960Z,2.99
2018-04-01T02:21:49.952Z,2.99
2018-04-01T02:22:28.933Z,2.92
2018-04-01T02:23:28.912Z,2.92
2018-04-01T02:24:28.952Z,2.79
2018-04-01T02:25:28.889Z,2.75
2018-04-01T02:26:28.872Z,2.74
2018-04-01T02:27:49.854Z,2.81
2018-04-01T02:28:28.840Z,2.81
2018-04-01T02:29:28.824Z,2.78
2018-04-01T02:30:28.815Z,2.66
2018-04-01T02:31:28.844Z,2.75
2018-04-01T02:32:28.778Z,2.67
2018-04-01T02:33:49.776Z,2.75
2018-04-01T02:34:28.749Z,2.79
2018-04-01T02:35:28.737Z,2.72
2018-04-01T02:36:28.718Z,2.84
2018-04-01T02:37:28.707Z,2.72
2018-04-01T02:38:28.686Z,2.79
2018-04-01T02:39:49.675Z,2.79
2018-04-01T02:40:28.658Z,2.77
2018-04-01T02:41:28.640Z,2.79
2018-04-01T02:42:28.628Z,2.79
2018-04-01T02:43:28.611Z,2.82
2018-04-01T02:44:28.600Z,2.78
2018-04-01T02:45:49.587Z,2.79
2018-04-01T02:46:28.564Z,2.81
2018-04-01T02:47:28.547Z,2.77
2018-04-01T02:48:28.535Z,2.72
2018-04-01T02:49:28.517Z,2.64
2018-04-01T02:50:28.505Z,2.61
2018-04-01T02:51:49.491Z,2.61
2018-04-01T02:52:28.471Z,2.71
2018-04-01T02:53:28.453Z,2.57
2018-04-01T02:54:28.440Z,2.59
2018-04-01T02:55:28.434Z,2.46
2018-04-01T02:56:28.419Z,2.56
2018-04-01T02:57:49.400Z,2.49
2018-04-01T02:58:28.386Z,2.41
2018-04-01T02:59:28.366Z,2.43
2018-04-01T03:00:28.351Z,2.48
2018-04-01T03:01:28.334Z,2.43
2018-04-01T03:02:28.312Z,2.52
2018-04-01T03:03:49.303Z,2.54
2018-04-01T03:04:28.290Z,2.46
2018-04-01T03:05:28.272Z,2.56
2018-04-01T03:06:28.259Z,2.54
2018-04-01T03:07:28.244Z,2.61
2018-04-01T03:08:28.224Z,2.57
2018-04-01T03:09:49.209Z,2.54
2018-04-01T03:10:28.197Z,2.57
2018-04-01T03:11:28.181Z,2.66
2018-04-01T03:12:28.167Z,2.66
2018-04-01T03:13:28.145Z,2.60
2018-04-01T03:14:28.137Z,2.60
2018-04-01T03:15:49.125Z,2.69
2018-04-01T03:16:28.102Z,2.72
2018-04-01T03:17:28.089Z,2.79
2018-04-01T03:18:28.075Z,2.72
2018-04-01T03:19:28.054Z,2.74
2018-04-01T03:20:28.040Z,2.72
2018-04-01T03:21:49.028Z,2.69
2018-04-01T03:22:28.012Z,2.67
2018-04-01T03:23:27.992Z,2.74
2018-04-01T03:24:27.986Z,2.72
2018-04-01T03:25:27.966Z,2.79
2018-04-01T03:26:27.947Z,2.77
2018-04-01T03:27:48.937Z,2.74
2018-04-01T03:28:27.925Z,2.67
2018-04-01T03:29:27.899Z,2.67
2018-04-01T03:30:27.884Z,2.56
2018-04-01T03:31:27.868Z,2.52
2018-04-01T03:32:27.860Z,2.54
2018-04-01T03:33:48.840Z,2.48
2018-04-01T03:34:27.830Z,2.54
2018-04-01T03:35:27.809Z,2.43
2018-04-01T03:36:27.795Z,2.59
2018-04-01T03:37:27.781Z,2.56
2018-04-01T03:38:27.769Z,2.56
2018-04-01T03:39:48.752Z,2.57
2018-04-01T03:40:27.728Z,2.67
2018-04-01T03:41:27.715Z,2.69
2018-04-01T03:42:27.702Z,2.67
2018-04-01T03:43:27.682Z,2.69
2018-04-01T03:44:27.676Z,2.67
2018-04-01T03:45:48.658Z,2.79
2018-04-01T03:46:27.632Z,2.74
2018-04-01T03:47:27.624Z,2.72
2018-04-01T03:48:27.606Z,2.72
2018-04-01T03:49:27.590Z,2.71
2018-04-01T03:50:27.575Z,2.74
2018-04-01T03:51:48.571Z,2.74
2018-04-01T03:52:27.546Z,2.74
2018-04-01T03:53:27.537Z,2.75
2018-04-01T03:54:27.517Z,2.72
2018-04-01T03:55:27.501Z,2.77
2018-04-01T03:56:27.481Z,2.78
2018-04-01T03:57:48.473Z,2.77
2018-04-01T03:58:27.452Z,2.79
2018-04-01T03:59:27.442Z,2.74
2018-04-01T04:00:27.453Z,2.72
2018-04-01T04:01:27.410Z,2.63
2018-04-01T04:02:27.397Z,2.78
2018-04-01T04:03:48.375Z,2.75
2018-04-01T04:04:27.362Z,2.64
2018-04-01T04:05:27.353Z,2.78
2018-04-01T04:06:27.326Z,2.61
2018-04-01T04:07:27.314Z,2.66
2018-04-01T04:08:27.306Z,2.64
2018-04-01T04:09:48.284Z,2.81
2018-04-01T04:10:27.268Z,2.79
2018-04-01T04:11:27.252Z,2.67
2018-04-01T04:12:27.240Z,2.69
2018-04-01T04:13:27.220Z,2.74
2018-04-01T04:14:27.214Z,2.82
2018-04-01T04:15:48.193Z,2.78
2018-04-01T04:16:27.185Z,2.77
2018-04-01T04:17:27.169Z,2.79
2018-04-01T04:18:27.154Z,2.77
2018-04-01T04:19:27.126Z,2.74
2018-04-01T04:20:27.118Z,2.90
2018-04-01T04:21:48.101Z,2.85
2018-04-01T04:22:27.076Z,2.77
2018-04-01T04:23:27.070Z,2.77
2018-04-01T04:24:27.058Z,2.78
2018-04-01T04:25:27.032Z,2.85
2018-04-01T04:26:27.026Z,2.79
2018-04-01T04:27:48.013Z,2.79
2018-04-01T04:28:26.990Z,2.85
2018-04-01T04:29:26.974Z,2.82
2018-04-01T04:30:26.965Z,2.84
2018-04-01T04:31:26.958Z,2.85
2018-04-01T04:32:26.937Z,2.85
2018-04-01T04:33:47.921Z,2.84
2018-04-01T04:34:26.902Z,2.81
2018-04-01T04:35:26.885Z,2.79
2018-04-01T04:36:26.919Z,2.85
2018-04-01T04:37:26.873Z,2.78
2018-04-01T04:38:26.848Z,2.78
2018-04-01T04:39:47.824Z,2.75
2018-04-01T04:40:26.821Z,2.74
2018-04-01T04:41:26.788Z,2.74
2018-04-01T04:42:26.775Z,2.69
2018-04-01T04:43:26.760Z,2.66
2018-04-01T04:44:26.759Z,2.71
2018-04-01T04:45:47.731Z,2.77
2018-04-01T04:46:26.713Z,2.74
2018-04-01T04:47:26.703Z,2.72
2018-04-01T04:48:26.689Z,2.69
2018-04-01T04:49:26.669Z,2.63
2018-04-01T04:50:26.649Z,2.67
2018-04-01T04:51:47.649Z,2.53
2018-04-01T04:52:26.625Z,2.67
2018-04-01T04:53:26.603Z,2.64
2018-04-01T04:54:26.598Z,2.66
2018-04-01T04:55:26.580Z,2.63
2018-04-01T04:56:26.557Z,2.67
2018-04-01T04:57:47.548Z,2.64
2018-04-01T04:58:26.534Z,2.61
2018-04-01T04:59:26.514Z,2.63
2018-04-01T05:00:26.492Z,2.66
2018-04-01T05:01:26.484Z,2.66
2018-04-01T05:02:26.469Z,2.63
2018-04-01T05:03:47.455Z,2.69
2018-04-01T05:04:26.441Z,2.71
2018-04-01T05:05:26.429Z,2.71
2018-04-01T05:06:26.406Z,2.72
2018-04-01T05:07:26.390Z,2.74
2018-04-01T05:08:26.427Z,2.63
2018-04-01T05:09:47.363Z,2.74
2018-04-01T05:10:26.343Z,2.63
2018-04-01T05:11:26.344Z,2.77
2018-04-01T05:12:26.313Z,2.75
2018-04-01T05:13:26.301Z,2.75
2018-04-01T05:14:26.286Z,2.69
2018-04-01T05:15:47.272Z,2.66
2018-04-01T05:16:26.257Z,2.66
2018-04-01T05:17:26.241Z,2.67
2018-04-01T05:18:26.220Z,2.69
2018-04-01T05:19:26.200Z,2.81
2018-04-01T05:20:26.188Z,2.77
2018-04-01T05:21:47.176Z,2.79
2018-04-01T05:22:26.160Z,2.89
2018-04-01T05:23:26.141Z,2.77
2018-04-01T05:24:26.129Z,2.89
2018-04-01T05:25:26.116Z,2.79
2018-04-01T05:26:26.101Z,2.92
2018-04-01T05:27:47.093Z,2.84
2018-04-01T05:28:26.073Z,2.72
2018-04-01T05:29:26.059Z,2.77
2018-04-01T05:30:26.037Z,2.63
2018-04-01T05:31:26.025Z,2.64
2018-04-01T05:32:26.010Z,2.67
2018-04-01T05:33:46.997Z,2.66
2018-04-01T05:34:25.974Z,2.57
2018-04-01T05:35:25.959Z,2.52
2018-04-01T05:36:25.942Z,2.54
2018-04-01T05:37:25.926Z,2.49
2018-04-01T05:38:25.918Z,2.56
2018-04-01T05:39:46.905Z,2.52
2018-04-01T05:40:25.879Z,2.56
2018-04-01T05:41:25.871Z,2.53
2018-04-01T05:42:25.850Z,2.53
2018-04-01T05:43:25.834Z,2.74
2018-04-01T05:44:25.817Z,2.60
2018-04-01T05:45:46.817Z,2.72
2018-04-01T05:46:25.786Z,2.74
2018-04-01T05:47:25.802Z,2.82
2018-04-01T05:48:25.758Z,2.90
2018-04-01T05:49:25.742Z,2.84
2018-04-01T05:50:25.733Z,2.89
2018-04-01T05:51:46.715Z,2.92
2018-04-01T05:52:25.695Z,3.00
2018-04-01T05:53:25.684Z,2.95
2018-04-01T05:54:25.665Z,3.05
2018-04-01T05:55:25.653Z,3.08
2018-04-01T05:56:25.639Z,3.03
2018-04-01T05:57:46.621Z,3.02
2018-04-01T05:58:25.610Z,3.03
2018-04-01T05:59:25.588Z,3.03
2018-04-01T06:00:25.576Z,3.08
2018-04-01T06:01:25.554Z,3.06
2018-04-01T06:02:25.540Z,3.06
2018-04-01T06:03:46.532Z,3.02
2018-04-01T06:04:25.508Z,2.92
2018-04-01T06:05:25.497Z,2.84
2018-04-01T06:06:25.484Z,2.90
2018-04-01T06:07:25.473Z,2.90
2018-04-01T06:08:25.453Z,2.81
2018-04-01T06:09:46.435Z,2.87
2018-04-01T06:10:25.416Z,2.96
2018-04-01T06:11:25.403Z,2.87
2018-04-01T06:12:25.393Z,2.95
2018-04-01T06:13:25.370Z,2.90
2018-04-01T06:14:25.372Z,2.90
2018-04-01T06:15:46.345Z,2.75
2018-04-01T06:16:25.325Z,2.77
2018-04-01T06:17:25.313Z,2.75
2018-04-01T06:18:25.305Z,2.64
2018-04-01T06:19:25.279Z,2.75
2018-04-01T06:20:25.279Z,2.72
2018-04-01T06:21:46.253Z,2.77
2018-04-01T06:22:25.236Z,2.79
2018-04-01T06:23:25.222Z,2.79
2018-04-01T06:24:25.198Z,2.77
2018-04-01T06:25:25.199Z,2.72
2018-04-01T06:26:25.172Z,2.78
2018-04-01T06:27:46.162Z,2.72
2018-04-01T06:28:25.142Z,2.77
2018-04-01T06:29:25.126Z,2.77
2018-04-01T06:30:25.117Z,2.75
2018-04-01T06:31:25.096Z,2.78
2018-04-01T06:32:25.081Z,2.87
2018-04-01T06:33:46.076Z,2.79
2018-04-01T06:34:25.053Z,2.95
2018-04-01T06:35:25.041Z,3.02
2018-04-01T06:36:25.022Z,2.97
2018-04-01T06:37:25.005Z,3.08
2018-04-01T06:38:24.988Z,3.05
2018-04-01T06:39:45.974Z,3.05
2018-04-01T06:40:24.956Z,3.05
2018-04-01T06:41:24.943Z,3.14
2018-04-01T06:42:24.931Z,3.06
2018-04-01T06:43:24.909Z,3.21
2018-04-01T06:44:24.903Z,3.06
2018-04-01T06:45:45.895Z,3.10
2018-04-01T06:46:24.862Z,3.03
2018-04-01T06:47:24.852Z,3.05
2018-04-01T06:48:24.846Z,3.08
2018-04-01T06:49:24.820Z,3.14
2018-04-01T06:50:24.808Z,3.10
2018-04-01T06:51:45.800Z,3.20
2018-04-01T06:52:24.770Z,3.17
2018-04-01T06:53:24.759Z,3.17
2018-04-01T06:54:24.746Z,3.18
2018-04-01T06:55:24.733Z,3.21
2018-04-01T06:56:24.718Z,3.17
2018-04-01T06:57:45.703Z,3.08
2018-04-01T06:58:24.695Z,3.10
2018-04-01T06:59:24.668Z,3.05
2018-04-01T07:00:24.657Z,3.17
2018-04-01T07:01:24.637Z,3.23
2018-04-01T07:02:24.621Z,3.23
2018-04-01T07:03:45.610Z,3.13
2018-04-01T07:04:24.596Z,3.10
2018-04-01T07:05:24.576Z,3.08
2018-04-01T07:06:24.562Z,3.14
2018-04-01T07:07:24.549Z,3.00
2018-04-01T07:08:24.532Z,3.05
2018-04-01T07:09:45.518Z,3.11
2018-04-01T07:10:24.501Z,3.21
2018-04-01T07:11:24.491Z,3.28
2018-04-01T07:12:24.474Z,3.29
2018-04-01T07:13:24.457Z,3.39
2018-04-01T07:14:24.436Z,3.40
2018-04-01T07:15:45.427Z,3.43
2018-04-01T07:16:24.408Z,3.40
2018-04-01T07:17:24.388Z,3.61
2018-04-01T07:18:24.381Z,3.61
2018-04-01T07:19:24.359Z,3.60
2018-04-01T07:20:24.355Z,3.61
2018-04-01T07:21:45.336Z,3.54
2018-04-01T07:22:24.317Z,3.58
2018-04-01T07:23:24.299Z,3.60
2018-04-01T07:24:24.294Z,3.60
2018-04-01T07:25:24.276Z,3.68
2018-04-01T07:26:24.256Z,4.18
2018-04-01T07:27:45.272Z,4.00
2018-04-01T07:28:24.229Z,4.00
2018-04-01T07:29:24.210Z,4.12
2018-04-01T07:30:24.206Z,4.20
2018-04-01T07:32:24.180Z,4.20
2018-04-01T07:33:45.174Z,4.15
2018-04-01T07:34:24.151Z,4.09
2018-04-01T07:35:24.144Z,4.18
2018-04-01T07:36:24.122Z,4.15
2018-04-01T07:37:45.115Z,4.15
2018-04-01T07:38:45.093Z,4.06
2018-04-01T07:39:24.081Z,4.06
2018-04-01T07:40:24.064Z,4.05
2018-04-01T07:41:24.051Z,4.20
2018-04-01T07:42:45.042Z,4.27
2018-04-01T07:43:45.018Z,4.26
2018-04-01T07:44:24.008Z,4.29
2018-04-01T07:45:23.993Z,4.32
2018-04-01T07:46:23.974Z,4.24
2018-04-01T07:47:44.966Z,4.14
2018-04-01T07:48:44.943Z,4.20
2018-04-01T07:49:23.929Z,4.06
2018-04-01T07:50:23.925Z,4.09
2018-04-01T07:51:23.904Z,4.20
2018-04-01T07:52:44.889Z,4.24
2018-04-01T07:53:44.873Z,4.15
2018-04-01T07:54:23.871Z,4.14
2018-04-01T07:55:23.849Z,4.32
2018-04-01T07:56:23.829Z,4.30
2018-04-01T07:57:44.815Z,4.33
2018-04-01T07:58:44.796Z,4.41
2018-04-01T07:59:23.789Z,4.36
2018-04-01T08:00:23.775Z,4.34
2018-04-01T08:01:23.752Z,4.40
2018-04-01T08:02:44.742Z,4.44
2018-04-01T08:03:44.727Z,4.47
2018-04-01T08:04:23.708Z,4.44
2018-04-01T08:05:23.693Z,4.55
2018-04-01T08:06:23.684Z,4.62
2018-04-01T08:07:44.675Z,4.52
2018-04-01T08:08:44.663Z,4.48
2018-04-01T08:09:23.636Z,4.44
2018-04-01T08:10:23.626Z,4.37
2018-04-01T08:11:23.615Z,4.36
2018-04-01T08:12:44.599Z,4.32
2018-04-01T08:13:44.583Z,4.26
2018-04-01T08:14:23.558Z,4.22
2018-04-01T08:15:23.554Z,4.24
2018-04-01T08:16:23.545Z,4.18
2018-04-01T08:17:44.521Z,4.22
2018-04-01T08:18:44.518Z,4.16
2018-04-01T08:19:23.488Z,4.30
2018-04-01T08:20:23.478Z,4.23
2018-04-01T08:21:23.479Z,4.09
2018-04-01T08:22:44.457Z,4.20
2018-04-01T08:23:44.496Z,4.14
2018-04-01T08:24:23.416Z,4.09
2018-04-01T08:25:23.410Z,4.12
2018-04-01T08:26:23.393Z,4.24
2018-04-01T08:27:44.381Z,4.30
2018-04-01T08:28:44.368Z,4.41
2018-04-01T08:29:23.349Z,4.36
2018-04-01T08:30:23.336Z,4.47
2018-04-01T08:31:23.321Z,4.47
2018-04-01T08:32:44.314Z,4.54
2018-04-01T08:33:44.288Z,4.47
2018-04-01T08:34:23.292Z,4.59
2018-04-01T08:35:23.270Z,4.70
2018-04-01T08:36:23.249Z,4.67
2018-04-01T08:37:44.278Z,4.69
2018-04-01T08:38:44.219Z,4.75
2018-04-01T08:39:23.200Z,4.77
2018-04-01T08:40:23.175Z,4.84
2018-04-01T08:42:57.787Z,4.97
2018-04-01T08:43:57.717Z,5.03
2018-04-01T08:45:53.605Z,5.13
2018-04-01T08:46:53.549Z,5.27
2018-04-01T08:48:48.572Z,5.27
2018-04-01T08:49:48.537Z,5.36
2018-04-01T08:51:43.421Z,5.48
2018-04-01T08:52:43.377Z,5.48
2018-04-01T08:54:38.179Z,5.57
2018-04-01T08:55:38.142Z,5.71
2018-04-01T08:57:33.573Z,5.99
2018-04-01T08:58:33.538Z,5.90
2018-04-01T09:00:29.499Z,5.99
2018-04-01T09:01:29.289Z,6.03
2018-04-01T09:03:24.883Z,6.14
2018-04-01T09:04:24.849Z,5.86
2018-04-01T09:06:19.801Z,5.61
2018-04-01T09:07:19.541Z,5.53
2018-04-01T09:09:15.982Z,5.63
2018-04-01T09:10:15.886Z,5.72
2018-04-01T09:12:10.549Z,6.34
2018-04-01T09:13:10.458Z,6.87
2018-04-01T09:15:05.033Z,7.05
2018-04-01T09:16:04.959Z,6.80
2018-04-01T09:18:00.839Z,6.61
2018-04-01T09:19:00.794Z,6.54
2018-04-01T09:21:02.251Z,6.55
2018-04-01T09:22:01.937Z,6.70
2018-04-01T09:23:01.919Z,6.73
2018-04-01T09:24:01.916Z,6.73
2018-04-01T09:25:01.904Z,6.73
2018-04-01T09:26:01.881Z,6.79
2018-04-01T09:27:01.877Z,6.92
2018-04-01T09:28:01.859Z,6.97
2018-04-01T09:29:01.847Z,7.16
2018-04-01T09:30:01.832Z,7.32
2018-04-01T09:31:01.822Z,7.35
2018-04-01T09:32:01.850Z,7.48
2018-04-01T09:33:01.819Z,7.63
2018-04-01T09:34:01.780Z,7.64
2018-04-01T09:35:01.765Z,7.75
2018-04-01T09:36:01.755Z,7.83
2018-04-01T09:37:01.760Z,7.92
2018-04-01T09:38:01.725Z,7.93
2018-04-01T09:39:01.712Z,8.02
2018-04-01T09:40:01.699Z,8.11
2018-04-01T09:41:01.693Z,8.19
2018-04-01T09:42:01.681Z,8.28
2018-04-01T09:43:01.658Z,8.15
2018-04-01T09:44:01.704Z,7.80
2018-04-01T09:45:01.639Z,7.69
2018-04-01T09:46:01.623Z,7.39
2018-04-01T09:47:01.628Z,7.35
2018-04-01T09:48:01.599Z,7.49
2018-04-01T09:49:01.591Z,7.35
2018-04-01T09:50:01.610Z,7.32
2018-04-01T09:51:01.561Z,7.43
2018-04-01T09:52:01.547Z,7.46
2018-04-01T09:53:01.539Z,7.49
2018-04-01T09:54:01.522Z,7.67
2018-04-01T09:55:01.516Z,7.68
2018-04-01T09:56:01.504Z,7.75
2018-04-01T09:57:01.481Z,7.87
2018-04-01T09:58:01.484Z,7.92
2018-04-01T09:59:01.456Z,8.02
2018-04-01T10:00:01.448Z,8.08
2018-04-01T10:01:01.488Z,8.01
2018-04-01T10:02:01.466Z,8.04
2018-04-01T10:03:01.414Z,8.12
2018-04-01T10:04:01.397Z,8.18
2018-04-01T10:05:01.383Z,8.29
2018-04-01T10:06:01.368Z,8.26
2018-04-01T10:07:01.356Z,8.73
2018-04-01T10:08:01.344Z,9.21
2018-04-01T10:09:01.333Z,9.76
2018-04-01T10:10:01.325Z,10.15
2018-04-01T10:11:01.312Z,10.41
2018-04-01T10:12:01.302Z,10.60
2018-04-01T10:13:01.316Z,10.67
2018-04-01T10:14:01.267Z,10.55
2018-04-01T10:15:01.263Z,10.64
2018-04-01T10:16:01.256Z,10.73
2018-04-01T10:17:01.241Z,10.85
2018-04-01T10:18:01.223Z,11.00
2018-04-01T10:19:01.222Z,11.14
2018-04-01T10:20:01.248Z,11.33
2018-04-01T10:21:01.196Z,11.72
2018-04-01T10:22:01.180Z,11.98
2018-04-01T10:23:01.169Z,12.24
2018-04-01T10:24:01.154Z,12.79
2018-04-01T10:25:01.141Z,12.82
2018-04-01T10:26:01.128Z,13.25
2018-04-01T10:27:01.121Z,13.46
2018-04-01T10:28:01.115Z,13.05
2018-04-01T10:29:01.099Z,12.96
2018-04-01T10:30:01.091Z,12.86
2018-04-01T10:31:01.083Z,12.85
2018-04-01T10:32:01.069Z,12.68
2018-04-01T10:33:01.057Z,12.41
2018-04-01T10:34:01.060Z,12.32
2018-04-01T10:35:01.038Z,12.13
2018-04-01T10:36:01.029Z,11.91
2018-04-01T10:37:01.014Z,11.55
2018-04-01T10:38:01.044Z,10.89
2018-04-01T10:39:00.996Z,10.70
2018-04-01T10:40:00.984Z,10.67
2018-04-01T10:41:00.981Z,10.64
2018-04-01T10:42:00.967Z,10.56
2018-04-01T10:43:00.957Z,10.40
2018-04-01T10:44:00.941Z,10.32
2018-04-01T10:45:00.937Z,10.29
2018-04-01T10:46:00.913Z,10.29
2018-04-01T10:47:00.911Z,10.17
2018-04-01T10:48:00.905Z,10.07
2018-04-01T10:49:00.889Z,10.11
2018-04-01T10:50:00.880Z,10.15
2018-04-01T10:51:00.876Z,9.99
2018-04-01T10:52:00.857Z,9.86
2018-04-01T10:53:00.850Z,9.91
2018-04-01T10:54:00.834Z,9.71
2018-04-01T10:55:00.863Z,9.69
2018-04-01T10:56:00.818Z,9.76
2018-04-01T10:57:00.800Z,9.78
2018-04-01T10:58:00.795Z,9.78
2018-04-01T10:59:00.790Z,9.76
2018-04-01T11:00:00.774Z,9.91
2018-04-01T11:01:00.756Z,9.93
2018-04-01T11:02:00.757Z,9.89
2018-04-01T11:03:00.745Z,9.99
2018-04-01T11:04:00.728Z,10.08
2018-04-01T11:05:00.721Z,10.11
2018-04-01T11:06:00.708Z,10.22
2018-04-01T11:07:00.695Z,10.22
2018-04-01T11:08:00.688Z,10.36
2018-04-01T11:09:00.671Z,10.33
2018-04-01T11:10:00.664Z,10.44
2018-04-01T11:11:00.650Z,10.33
2018-04-01T11:12:00.643Z,10.48
2018-04-01T11:13:00.632Z,10.47
2018-04-01T11:14:00.627Z,10.56
2018-04-01T11:15:00.605Z,10.51
2018-04-01T11:16:00.599Z,10.45
2018-04-01T11:17:00.599Z,10.32
2018-04-01T11:18:00.576Z,10.23
2018-04-01T11:19:00.561Z,10.05
2018-04-01T11:20:00.553Z,10.04
2018-04-01T11:21:00.545Z,9.86
2018-04-01T11:22:00.532Z,9.96
2018-04-01T11:23:00.520Z,9.74
2018-04-01T11:24:00.511Z,9.61
2018-04-01T11:25:00.502Z,9.54
2018-04-01T11:26:00.520Z,9.64
2018-04-01T11:27:00.476Z,9.60
2018-04-01T11:28:00.480Z,9.48
2018-04-01T11:29:00.464Z,9.31
2018-04-01T11:30:00.447Z,9.29
2018-04-01T11:31:00.437Z,9.05
2018-04-01T11:32:00.417Z,9.04
2018-04-01T11:33:00.436Z,9.13
2018-04-01T11:34:00.404Z,9.13
2018-04-01T11:35:00.390Z,9.17
2018-04-01T11:36:00.382Z,9.18
2018-04-01T11:37:00.368Z,9.47
2018-04-01T11:38:00.353Z,9.65
2018-04-01T11:39:00.341Z,9.69
2018-04-01T11:40:00.335Z,9.60
2018-04-01T11:41:00.323Z,9.56
2018-04-01T11:42:00.317Z,9.66
2018-04-01T11:43:00.295Z,9.64
2018-04-01T11:44:00.285Z,9.60
2018-04-01T11:45:00.282Z,9.54
2018-04-01T11:46:00.265Z,9.42
2018-04-01T11:47:00.260Z,9.33
2018-04-01T11:48:00.238Z,9.40
2018-04-01T11:49:00.239Z,9.40
2018-04-01T11:50:00.242Z,9.24
2018-04-01T11:51:00.247Z,9.21
2018-04-01T11:52:00.217Z,8.99
2018-04-01T11:53:00.184Z,8.96
2018-04-01T11:54:00.179Z,8.96
2018-04-01T11:55:00.192Z,8.99
2018-04-01T11:56:00.153Z,8.94
2018-04-01T11:58:00.962Z,8.65
2018-04-01T11:59:00.912Z,8.41
2018-04-01T12:00:57.407Z,8.33
2018-04-01T12:01:57.229Z,8.36
2018-04-01T12:03:54.220Z,8.04
2018-04-01T12:04:52.560Z,7.87
2018-04-01T12:06:48.466Z,7.50
2018-04-01T12:07:48.401Z,7.28
2018-04-01T12:09:43.277Z,7.31
2018-04-01T12:10:43.239Z,7.31
2018-04-01T12:12:39.666Z,7.20
2018-04-01T12:13:39.628Z,7.23
2018-04-01T12:15:35.500Z,7.28
2018-04-01T12:16:35.469Z,7.34
2018-04-01T12:18:30.359Z,7.82
2018-04-01T12:19:30.305Z,7.87
2018-04-01T12:21:25.190Z,7.98
2018-04-01T12:22:25.148Z,8.19
2018-04-01T12:24:20.010Z,8.34
2018-04-01T12:25:19.992Z,8.22
2018-04-01T12:27:14.824Z,8.18
2018-04-01T12:28:14.798Z,8.29
2018-04-01T12:30:10.752Z,8.36
2018-04-01T12:31:10.245Z,8.38
2018-04-01T12:33:05.690Z,8.59
2018-04-01T12:34:05.650Z,8.63
2018-04-01T12:36:00.521Z,8.95
2018-04-01T12:37:00.498Z,9.28
2018-04-01T12:38:55.390Z,9.39
2018-04-01T12:39:55.333Z,9.32
2018-04-01T12:41:50.205Z,9.18
2018-04-01T12:42:50.167Z,9.10
2018-04-01T12:44:45.140Z,9.05
2018-04-01T12:45:45.006Z,9.13
2018-04-01T12:47:40.385Z,9.31
2018-04-01T12:48:40.357Z,9.33
2018-04-01T12:50:35.218Z,10.14
2018-04-01T12:51:35.357Z,10.08
2018-04-01T12:53:31.057Z,9.93
2018-04-01T12:54:32.235Z,9.76
2018-04-01T12:56:25.897Z,9.64
2018-04-01T12:57:25.877Z,9.71
2018-04-01T12:59:21.182Z,9.83
2018-04-01T13:00:21.151Z,9.79
2018-04-01T13:02:15.942Z,9.35
2018-04-01T13:03:15.909Z,9.15
2018-04-01T13:05:14.745Z,9.14
2018-04-01T13:06:14.706Z,9.14
2018-04-01T13:07:14.690Z,9.13
2018-04-01T13:08:14.675Z,9.28
2018-04-01T13:09:14.670Z,9.20
2018-04-01T13:10:14.662Z,9.29
2018-04-01T13:11:14.650Z,9.23
2018-04-01T13:12:14.637Z,9.10
2018-04-01T13:13:14.621Z,8.96
2018-04-01T13:14:14.607Z,8.92
2018-04-01T13:15:14.600Z,8.99
2018-04-01T13:16:14.587Z,8.87
2018-04-01T13:17:14.579Z,8.80
2018-04-01T13:18:14.578Z,8.89
2018-04-01T13:19:14.555Z,8.89
2018-04-01T13:20:14.618Z,8.81
2018-04-01T13:21:14.535Z,8.87
2018-04-01T13:22:14.527Z,8.81
2018-04-01T13:23:14.502Z,8.71
2018-04-01T13:24:14.494Z,8.63
2018-04-01T13:25:14.489Z,8.55
2018-04-01T13:26:14.468Z,8.52
2018-04-01T13:27:14.462Z,8.43
2018-04-01T13:28:14.444Z,8.37
2018-04-01T13:29:14.437Z,8.26
2018-04-01T13:30:14.418Z,8.36
2018-04-01T13:31:14.411Z,8.40
2018-04-01T13:32:14.442Z,8.26
2018-04-01T13:33:14.390Z,8.34
2018-04-01T13:34:14.373Z,8.40
2018-04-01T13:35:14.367Z,8.38
2018-04-01T13:36:14.353Z,8.38
2018-04-01T13:37:14.338Z,8.52
2018-04-01T13:38:14.332Z,8.47
2018-04-01T13:39:14.317Z,8.58
2018-04-01T13:40:14.300Z,8.48
2018-04-01T13:41:14.294Z,8.48
2018-04-01T13:42:14.281Z,8.53
2018-04-01T13:43:14.270Z,8.52
2018-04-01T13:44:14.251Z,8.52
2018-04-01T13:45:14.240Z,8.50
2018-04-01T13:46:14.229Z,8.45
2018-04-01T13:47:14.217Z,8.52
2018-04-01T13:48:14.204Z,8.56
2018-04-01T13:49:14.217Z,8.55
2018-04-01T13:50:14.180Z,8.59
2018-04-01T13:51:14.168Z,8.65
2018-04-01T13:52:14.154Z,8.68
2018-04-01T13:53:14.135Z,8.91